sensor_id;sensor_type;location;lat;lon;timestamp;P1;durP1;ratioP1;P2;durP2;ratioP2
12048;SDS011;6085;49.452;8.502;2022-11-25T00:03:03;5.85;;;3.65;;
12048;SDS011;6085;49.452;8.502;2022-11-25T00:07:05;7.88;;;4.00;;
12048;SDS011;6085;49.452;8.502;2022-11-25T00:11:07;7.82;;;5.15;;
12048;SDS011;6085;49.452;8.502;2022-11-25T00:15:10;13.93;;;6.20;;
12048;SDS011;6085;49.452;8.502;2022-11-25T00:19:13;12.13;;;8.43;;
12048;SDS011;6085;49.452;8.502;2022-11-25T00:23:15;19.02;;;9.55;;
12048;SDS011;6085;49.452;8.502;2022-11-25T00:27:17;16.55;;;10.15;;
12048;SDS011;6085;49.452;8.502;2022-11-25T00:31:19;14.88;;;9.63;;
12048;SDS011;6085;49.452;8.502;2022-11-25T00:35:24;12.02;;;8.65;;
12048;SDS011;6085;49.452;8.502;2022-11-25T00:39:25;6.05;;;4.30;;
12048;SDS011;6085;49.452;8.502;2022-11-25T00:43:27;9.32;;;5.60;;
12048;SDS011;6085;49.452;8.502;2022-11-25T00:47:47;8.65;;;4.57;;
12048;SDS011;6085;49.452;8.502;2022-11-25T00:51:50;7.15;;;3.85;;
12048;SDS011;6085;49.452;8.502;2022-11-25T00:55:52;7.60;;;3.30;;
12048;SDS011;6085;49.452;8.502;2022-11-25T01:00:23;7.55;;;3.85;;
12048;SDS011;6085;49.452;8.502;2022-11-25T01:04:25;5.25;;;2.97;;
12048;SDS011;6085;49.452;8.502;2022-11-25T01:08:29;5.32;;;3.03;;
12048;SDS011;6085;49.452;8.502;2022-11-25T01:12:31;6.05;;;2.85;;
12048;SDS011;6085;49.452;8.502;2022-11-25T01:16:32;6.68;;;3.42;;
12048;SDS011;6085;49.452;8.502;2022-11-25T01:20:35;6.25;;;3.53;;
12048;SDS011;6085;49.452;8.502;2022-11-25T01:24:38;10.10;;;4.18;;
12048;SDS011;6085;49.452;8.502;2022-11-25T01:28:40;6.30;;;3.50;;
12048;SDS011;6085;49.452;8.502;2022-11-25T01:32:42;8.65;;;3.78;;
12048;SDS011;6085;49.452;8.502;2022-11-25T01:36:44;8.68;;;3.55;;
12048;SDS011;6085;49.452;8.502;2022-11-25T01:40:47;10.40;;;3.50;;
12048;SDS011;6085;49.452;8.502;2022-11-25T01:49:31;6.07;;;3.15;;
12048;SDS011;6085;49.452;8.502;2022-11-25T01:53:36;7.03;;;2.88;;
12048;SDS011;6085;49.452;8.502;2022-11-25T01:57:41;9.10;;;3.17;;
12048;SDS011;6085;49.452;8.502;2022-11-25T02:01:46;6.13;;;2.92;;
12048;SDS011;6085;49.452;8.502;2022-11-25T02:05:48;8.57;;;3.20;;
12048;SDS011;6085;49.452;8.502;2022-11-25T02:09:54;7.10;;;2.85;;
12048;SDS011;6085;49.452;8.502;2022-11-25T02:13:58;4.80;;;2.75;;
12048;SDS011;6085;49.452;8.502;2022-11-25T02:18:02;7.07;;;3.33;;
12048;SDS011;6085;49.452;8.502;2022-11-25T02:22:04;8.70;;;3.33;;
12048;SDS011;6085;49.452;8.502;2022-11-25T02:26:11;7.72;;;3.42;;
12048;SDS011;6085;49.452;8.502;2022-11-25T02:30:13;9.63;;;3.63;;
12048;SDS011;6085;49.452;8.502;2022-11-25T02:34:15;6.60;;;3.50;;
12048;SDS011;6085;49.452;8.502;2022-11-25T02:38:18;7.97;;;3.55;;
12048;SDS011;6085;49.452;8.502;2022-11-25T02:42:24;9.55;;;3.58;;
12048;SDS011;6085;49.452;8.502;2022-11-25T02:46:30;9.10;;;3.08;;
12048;SDS011;6085;49.452;8.502;2022-11-25T02:50:31;5.70;;;3.10;;
12048;SDS011;6085;49.452;8.502;2022-11-25T02:54:33;6.43;;;3.30;;
12048;SDS011;6085;49.452;8.502;2022-11-25T02:58:37;6.43;;;3.33;;
12048;SDS011;6085;49.452;8.502;2022-11-25T03:02:39;6.18;;;3.20;;
12048;SDS011;6085;49.452;8.502;2022-11-25T03:06:41;5.38;;;3.20;;
12048;SDS011;6085;49.452;8.502;2022-11-25T03:10:42;7.53;;;2.90;;
12048;SDS011;6085;49.452;8.502;2022-11-25T03:14:46;5.85;;;3.25;;
12048;SDS011;6085;49.452;8.502;2022-11-25T03:18:48;6.93;;;3.08;;
12048;SDS011;6085;49.452;8.502;2022-11-25T03:22:50;6.10;;;3.25;;
12048;SDS011;6085;49.452;8.502;2022-11-25T03:26:52;7.40;;;3.60;;
12048;SDS011;6085;49.452;8.502;2022-11-25T03:30:55;6.03;;;3.22;;
12048;SDS011;6085;49.452;8.502;2022-11-25T03:34:57;4.95;;;3.13;;
12048;SDS011;6085;49.452;8.502;2022-11-25T03:38:59;5.53;;;3.08;;
12048;SDS011;6085;49.452;8.502;2022-11-25T03:43:00;4.75;;;3.40;;
12048;SDS011;6085;49.452;8.502;2022-11-25T03:47:04;7.45;;;3.00;;
12048;SDS011;6085;49.452;8.502;2022-11-25T03:51:06;7.00;;;3.40;;
12048;SDS011;6085;49.452;8.502;2022-11-25T03:55:08;4.47;;;3.00;;
12048;SDS011;6085;49.452;8.502;2022-11-25T03:59:12;6.28;;;3.30;;
12048;SDS011;6085;49.452;8.502;2022-11-25T04:03:15;7.07;;;3.08;;
12048;SDS011;6085;49.452;8.502;2022-11-25T04:07:16;7.03;;;2.78;;
12048;SDS011;6085;49.452;8.502;2022-11-25T04:11:18;4.95;;;2.80;;
12048;SDS011;6085;49.452;8.502;2022-11-25T04:15:20;4.82;;;2.92;;
12048;SDS011;6085;49.452;8.502;2022-11-25T04:19:23;5.03;;;2.90;;
12048;SDS011;6085;49.452;8.502;2022-11-25T04:23:25;5.15;;;2.97;;
12048;SDS011;6085;49.452;8.502;2022-11-25T04:27:27;7.55;;;3.10;;
12048;SDS011;6085;49.452;8.502;2022-11-25T04:31:29;5.90;;;2.95;;
12048;SDS011;6085;49.452;8.502;2022-11-25T04:35:32;4.13;;;2.58;;
12048;SDS011;6085;49.452;8.502;2022-11-25T04:39:34;4.78;;;2.92;;
12048;SDS011;6085;49.452;8.502;2022-11-25T04:43:36;4.28;;;2.70;;
12048;SDS011;6085;49.452;8.502;2022-11-25T04:47:38;5.10;;;2.67;;
12048;SDS011;6085;49.452;8.502;2022-11-25T04:51:41;4.57;;;2.80;;
12048;SDS011;6085;49.452;8.502;2022-11-25T04:55:43;6.35;;;3.28;;
12048;SDS011;6085;49.452;8.502;2022-11-25T04:59:44;3.33;;;2.92;;
12048;SDS011;6085;49.452;8.502;2022-11-25T05:03:47;7.30;;;4.85;;
12048;SDS011;6085;49.452;8.502;2022-11-25T05:07:50;7.13;;;4.40;;
12048;SDS011;6085;49.452;8.502;2022-11-25T05:11:52;6.95;;;4.07;;
12048;SDS011;6085;49.452;8.502;2022-11-25T05:15:57;8.52;;;4.85;;
12048;SDS011;6085;49.452;8.502;2022-11-25T05:19:59;10.15;;;5.32;;
12048;SDS011;6085;49.452;8.502;2022-11-25T05:24:03;8.65;;;4.20;;
12048;SDS011;6085;49.452;8.502;2022-11-25T05:28:05;5.03;;;2.80;;
12048;SDS011;6085;49.452;8.502;2022-11-25T05:32:06;5.68;;;2.95;;
12048;SDS011;6085;49.452;8.502;2022-11-25T05:36:08;5.15;;;2.60;;
12048;SDS011;6085;49.452;8.502;2022-11-25T05:40:12;6.25;;;2.72;;
12048;SDS011;6085;49.452;8.502;2022-11-25T05:44:15;4.70;;;2.97;;
12048;SDS011;6085;49.452;8.502;2022-11-25T05:48:16;4.30;;;2.58;;
12048;SDS011;6085;49.452;8.502;2022-11-25T05:52:18;4.47;;;2.40;;
12048;SDS011;6085;49.452;8.502;2022-11-25T05:56:21;4.30;;;2.47;;
12048;SDS011;6085;49.452;8.502;2022-11-25T06:00:24;6.70;;;2.58;;
12048;SDS011;6085;49.452;8.502;2022-11-25T06:04:26;4.20;;;2.40;;
12048;SDS011;6085;49.452;8.502;2022-11-25T06:08:28;7.43;;;2.80;;
12048;SDS011;6085;49.452;8.502;2022-11-25T06:12:31;5.50;;;3.13;;
12048;SDS011;6085;49.452;8.502;2022-11-25T06:16:33;5.50;;;2.58;;
12048;SDS011;6085;49.452;8.502;2022-11-25T06:20:35;4.40;;;2.88;;
12048;SDS011;6085;49.452;8.502;2022-11-25T06:24:37;3.63;;;2.58;;
12048;SDS011;6085;49.452;8.502;2022-11-25T06:28:40;5.45;;;2.67;;
12048;SDS011;6085;49.452;8.502;2022-11-25T06:32:42;5.20;;;2.55;;
12048;SDS011;6085;49.452;8.502;2022-11-25T06:36:44;4.28;;;2.78;;
12048;SDS011;6085;49.452;8.502;2022-11-25T06:40:46;4.90;;;2.90;;
12048;SDS011;6085;49.452;8.502;2022-11-25T06:44:49;6.30;;;3.38;;
12048;SDS011;6085;49.452;8.502;2022-11-25T06:48:51;4.80;;;2.67;;
12048;SDS011;6085;49.452;8.502;2022-11-25T06:52:53;4.60;;;3.10;;
12048;SDS011;6085;49.452;8.502;2022-11-25T06:56:55;4.57;;;2.90;;
12048;SDS011;6085;49.452;8.502;2022-11-25T07:01:02;3.22;;;2.85;;
12048;SDS011;6085;49.452;8.502;2022-11-25T07:05:05;4.07;;;2.97;;
12048;SDS011;6085;49.452;8.502;2022-11-25T07:09:08;4.28;;;3.35;;
12048;SDS011;6085;49.452;8.502;2022-11-25T07:13:10;4.20;;;2.83;;
12048;SDS011;6085;49.452;8.502;2022-11-25T07:17:13;6.75;;;3.33;;
12048;SDS011;6085;49.452;8.502;2022-11-25T07:21:15;6.07;;;3.22;;
12048;SDS011;6085;49.452;8.502;2022-11-25T07:25:20;5.28;;;3.85;;
12048;SDS011;6085;49.452;8.502;2022-11-25T07:29:22;5.15;;;2.90;;
12048;SDS011;6085;49.452;8.502;2022-11-25T07:33:25;7.32;;;3.47;;
12048;SDS011;6085;49.452;8.502;2022-11-25T07:37:27;8.77;;;3.67;;
12048;SDS011;6085;49.452;8.502;2022-11-25T07:41:28;4.88;;;2.92;;
12048;SDS011;6085;49.452;8.502;2022-11-25T07:45:30;5.97;;;3.08;;
12048;SDS011;6085;49.452;8.502;2022-11-25T07:49:33;6.75;;;3.25;;
12048;SDS011;6085;49.452;8.502;2022-11-25T07:53:35;5.35;;;3.10;;
12048;SDS011;6085;49.452;8.502;2022-11-25T07:57:37;4.07;;;3.33;;
12048;SDS011;6085;49.452;8.502;2022-11-25T08:01:39;6.70;;;3.15;;
12048;SDS011;6085;49.452;8.502;2022-11-25T08:05:44;9.15;;;3.90;;
12048;SDS011;6085;49.452;8.502;2022-11-25T08:09:46;8.27;;;3.40;;
12048;SDS011;6085;49.452;8.502;2022-11-25T08:13:48;7.50;;;3.30;;
12048;SDS011;6085;49.452;8.502;2022-11-25T08:17:50;7.18;;;3.65;;
12048;SDS011;6085;49.452;8.502;2022-11-25T08:21:53;3.15;;;2.85;;
12048;SDS011;6085;49.452;8.502;2022-11-25T08:25:55;8.52;;;3.75;;
12048;SDS011;6085;49.452;8.502;2022-11-25T08:29:57;8.30;;;3.58;;
12048;SDS011;6085;49.452;8.502;2022-11-25T08:33:59;6.20;;;3.65;;
12048;SDS011;6085;49.452;8.502;2022-11-25T08:38:03;6.30;;;3.40;;
12048;SDS011;6085;49.452;8.502;2022-11-25T08:42:05;5.25;;;3.72;;
12048;SDS011;6085;49.452;8.502;2022-11-25T08:46:08;6.25;;;3.25;;
12048;SDS011;6085;49.452;8.502;2022-11-25T08:50:12;6.25;;;3.20;;
12048;SDS011;6085;49.452;8.502;2022-11-25T08:54:16;5.22;;;3.45;;
12048;SDS011;6085;49.452;8.502;2022-11-25T08:58:18;5.78;;;3.40;;
12048;SDS011;6085;49.452;8.502;2022-11-25T09:02:19;5.22;;;3.55;;
12048;SDS011;6085;49.452;8.502;2022-11-25T09:06:22;5.00;;;3.53;;
12048;SDS011;6085;49.452;8.502;2022-11-25T09:10:26;6.22;;;3.67;;
12048;SDS011;6085;49.452;8.502;2022-11-25T09:14:28;8.57;;;3.67;;
12048;SDS011;6085;49.452;8.502;2022-11-25T09:18:30;6.93;;;3.47;;
12048;SDS011;6085;49.452;8.502;2022-11-25T09:22:32;10.73;;;4.10;;
12048;SDS011;6085;49.452;8.502;2022-11-25T09:26:35;10.93;;;3.55;;
12048;SDS011;6085;49.452;8.502;2022-11-25T09:30:40;7.18;;;3.42;;
12048;SDS011;6085;49.452;8.502;2022-11-25T09:34:42;6.50;;;3.42;;
12048;SDS011;6085;49.452;8.502;2022-11-25T09:38:43;5.85;;;3.80;;
12048;SDS011;6085;49.452;8.502;2022-11-25T09:42:48;6.90;;;3.50;;
12048;SDS011;6085;49.452;8.502;2022-11-25T09:47:14;5.25;;;3.22;;
12048;SDS011;6085;49.452;8.502;2022-11-25T09:51:20;6.10;;;3.45;;
12048;SDS011;6085;49.452;8.502;2022-11-25T09:55:25;4.32;;;3.00;;
12048;SDS011;6085;49.452;8.502;2022-11-25T09:59:33;4.25;;;3.00;;
12048;SDS011;6085;49.452;8.502;2022-11-25T10:03:42;9.63;;;3.42;;
12048;SDS011;6085;49.452;8.502;2022-11-25T10:07:47;5.57;;;3.67;;
12048;SDS011;6085;49.452;8.502;2022-11-25T10:11:53;5.78;;;3.42;;
12048;SDS011;6085;49.452;8.502;2022-11-25T10:16:00;4.90;;;3.30;;
12048;SDS011;6085;49.452;8.502;2022-11-25T10:20:06;7.10;;;3.35;;
12048;SDS011;6085;49.452;8.502;2022-11-25T10:24:15;4.80;;;3.53;;
12048;SDS011;6085;49.452;8.502;2022-11-25T10:28:21;7.40;;;3.38;;
12048;SDS011;6085;49.452;8.502;2022-11-25T10:32:26;5.07;;;3.17;;
12048;SDS011;6085;49.452;8.502;2022-11-25T10:36:32;4.60;;;3.42;;
12048;SDS011;6085;49.452;8.502;2022-11-25T10:40:38;4.75;;;3.30;;
12048;SDS011;6085;49.452;8.502;2022-11-25T10:44:40;7.35;;;3.40;;
12048;SDS011;6085;49.452;8.502;2022-11-25T10:48:49;5.70;;;3.13;;
12048;SDS011;6085;49.452;8.502;2022-11-25T10:52:59;3.72;;;3.05;;
12048;SDS011;6085;49.452;8.502;2022-11-25T10:57:15;4.55;;;3.05;;
12048;SDS011;6085;49.452;8.502;2022-11-25T11:01:20;7.20;;;3.28;;
12048;SDS011;6085;49.452;8.502;2022-11-25T11:05:26;4.00;;;3.15;;
12048;SDS011;6085;49.452;8.502;2022-11-25T11:09:31;6.95;;;3.25;;
12048;SDS011;6085;49.452;8.502;2022-11-25T11:13:35;6.57;;;2.97;;
12048;SDS011;6085;49.452;8.502;2022-11-25T11:17:38;5.85;;;3.20;;
12048;SDS011;6085;49.452;8.502;2022-11-25T11:21:41;5.15;;;2.92;;
12048;SDS011;6085;49.452;8.502;2022-11-25T11:25:53;6.82;;;3.00;;
12048;SDS011;6085;49.452;8.502;2022-11-25T11:29:59;5.00;;;3.17;;
12048;SDS011;6085;49.452;8.502;2022-11-25T11:34:21;5.85;;;3.33;;
12048;SDS011;6085;49.452;8.502;2022-11-25T11:38:39;6.53;;;3.38;;
12048;SDS011;6085;49.452;8.502;2022-11-25T11:47:19;4.13;;;2.90;;
12048;SDS011;6085;49.452;8.502;2022-11-25T11:51:29;6.10;;;3.45;;
12048;SDS011;6085;49.452;8.502;2022-11-25T11:55:49;7.78;;;3.30;;
12048;SDS011;6085;49.452;8.502;2022-11-25T11:59:57;5.15;;;2.88;;
12048;SDS011;6085;49.452;8.502;2022-11-25T12:04:07;7.47;;;3.30;;
12048;SDS011;6085;49.452;8.502;2022-11-25T12:08:19;3.63;;;2.97;;
12048;SDS011;6085;49.452;8.502;2022-11-25T12:12:31;3.95;;;2.90;;
12048;SDS011;6085;49.452;8.502;2022-11-25T12:16:36;8.23;;;3.45;;
12048;SDS011;6085;49.452;8.502;2022-11-25T12:20:46;4.97;;;3.40;;
12048;SDS011;6085;49.452;8.502;2022-11-25T12:25:03;6.38;;;3.03;;
12048;SDS011;6085;49.452;8.502;2022-11-25T12:29:12;4.15;;;2.88;;
12048;SDS011;6085;49.452;8.502;2022-11-25T12:33:20;6.20;;;3.28;;
12048;SDS011;6085;49.452;8.502;2022-11-25T12:37:28;4.63;;;3.17;;
12048;SDS011;6085;49.452;8.502;2022-11-25T12:41:36;4.70;;;2.65;;
12048;SDS011;6085;49.452;8.502;2022-11-25T12:45:43;7.25;;;3.20;;
12048;SDS011;6085;49.452;8.502;2022-11-25T12:49:47;8.98;;;3.20;;
12048;SDS011;6085;49.452;8.502;2022-11-25T12:53:54;4.70;;;3.03;;
12048;SDS011;6085;49.452;8.502;2022-11-25T13:02:41;5.38;;;4.38;;
12048;SDS011;6085;49.452;8.502;2022-11-25T13:07:06;7.40;;;4.35;;
12048;SDS011;6085;49.452;8.502;2022-11-25T13:11:29;6.93;;;4.00;;
12048;SDS011;6085;49.452;8.502;2022-11-25T13:15:50;6.18;;;4.38;;
12048;SDS011;6085;49.452;8.502;2022-11-25T13:24:32;4.75;;;3.80;;
12048;SDS011;6085;49.452;8.502;2022-11-25T13:28:38;7.03;;;4.30;;
12048;SDS011;6085;49.452;8.502;2022-11-25T13:32:40;6.03;;;4.03;;
12048;SDS011;6085;49.452;8.502;2022-11-25T13:36:46;7.07;;;4.28;;
12048;SDS011;6085;49.452;8.502;2022-11-25T13:40:56;8.55;;;4.07;;
12048;SDS011;6085;49.452;8.502;2022-11-25T13:44:59;6.13;;;3.90;;
12048;SDS011;6085;49.452;8.502;2022-11-25T13:49:01;5.88;;;3.85;;
12048;SDS011;6085;49.452;8.502;2022-11-25T13:53:07;4.90;;;3.75;;
12048;SDS011;6085;49.452;8.502;2022-11-25T13:57:26;4.32;;;3.45;;
12048;SDS011;6085;49.452;8.502;2022-11-25T14:01:29;5.38;;;2.90;;
12048;SDS011;6085;49.452;8.502;2022-11-25T14:05:52;7.75;;;3.20;;
12048;SDS011;6085;49.452;8.502;2022-11-25T14:10:06;5.88;;;3.00;;
12048;SDS011;6085;49.452;8.502;2022-11-25T14:14:26;6.30;;;2.60;;
12048;SDS011;6085;49.452;8.502;2022-11-25T14:18:52;5.88;;;2.95;;
12048;SDS011;6085;49.452;8.502;2022-11-25T14:23:15;6.45;;;3.05;;
12048;SDS011;6085;49.452;8.502;2022-11-25T14:27:34;5.90;;;2.88;;
12048;SDS011;6085;49.452;8.502;2022-11-25T14:31:40;4.55;;;3.13;;
12048;SDS011;6085;49.452;8.502;2022-11-25T14:35:50;5.22;;;3.00;;
12048;SDS011;6085;49.452;8.502;2022-11-25T14:39:54;4.50;;;3.05;;
12048;SDS011;6085;49.452;8.502;2022-11-25T14:43:59;4.30;;;2.78;;
12048;SDS011;6085;49.452;8.502;2022-11-25T14:48:15;6.80;;;2.88;;
12048;SDS011;6085;49.452;8.502;2022-11-25T14:52:21;7.80;;;3.40;;
12048;SDS011;6085;49.452;8.502;2022-11-25T14:56:26;6.35;;;3.03;;
12048;SDS011;6085;49.452;8.502;2022-11-25T15:00:30;6.20;;;3.70;;
12048;SDS011;6085;49.452;8.502;2022-11-25T15:04:39;4.45;;;2.90;;
12048;SDS011;6085;49.452;8.502;2022-11-25T15:08:42;7.47;;;3.58;;
12048;SDS011;6085;49.452;8.502;2022-11-25T15:12:47;5.75;;;3.15;;
12048;SDS011;6085;49.452;8.502;2022-11-25T15:16:48;5.53;;;3.38;;
12048;SDS011;6085;49.452;8.502;2022-11-25T15:20:54;5.57;;;3.60;;
12048;SDS011;6085;49.452;8.502;2022-11-25T15:25:05;6.72;;;3.25;;
12048;SDS011;6085;49.452;8.502;2022-11-25T15:29:09;6.78;;;3.40;;
12048;SDS011;6085;49.452;8.502;2022-11-25T15:33:12;7.03;;;3.60;;
12048;SDS011;6085;49.452;8.502;2022-11-25T15:37:15;6.28;;;3.60;;
12048;SDS011;6085;49.452;8.502;2022-11-25T15:41:18;6.60;;;3.97;;
12048;SDS011;6085;49.452;8.502;2022-11-25T15:45:24;7.20;;;3.50;;
12048;SDS011;6085;49.452;8.502;2022-11-25T15:49:32;8.82;;;3.53;;
12048;SDS011;6085;49.452;8.502;2022-11-25T15:53:36;6.95;;;3.92;;
12048;SDS011;6085;49.452;8.502;2022-11-25T15:57:39;5.30;;;4.03;;
12048;SDS011;6085;49.452;8.502;2022-11-25T16:01:41;4.68;;;3.30;;
12048;SDS011;6085;49.452;8.502;2022-11-25T16:05:50;8.35;;;3.80;;
12048;SDS011;6085;49.452;8.502;2022-11-25T16:09:54;10.20;;;3.88;;
12048;SDS011;6085;49.452;8.502;2022-11-25T16:14:02;7.32;;;3.50;;
12048;SDS011;6085;49.452;8.502;2022-11-25T16:18:18;6.78;;;3.85;;
12048;SDS011;6085;49.452;8.502;2022-11-25T16:22:22;9.52;;;3.75;;
12048;SDS011;6085;49.452;8.502;2022-11-25T16:26:27;8.30;;;4.18;;
12048;SDS011;6085;49.452;8.502;2022-11-25T16:30:30;8.65;;;4.07;;
12048;SDS011;6085;49.452;8.502;2022-11-25T16:34:37;6.65;;;3.97;;
12048;SDS011;6085;49.452;8.502;2022-11-25T16:38:57;8.77;;;3.80;;
12048;SDS011;6085;49.452;8.502;2022-11-25T16:43:23;7.72;;;3.72;;
12048;SDS011;6085;49.452;8.502;2022-11-25T16:47:28;9.73;;;4.10;;
12048;SDS011;6085;49.452;8.502;2022-11-25T16:51:30;6.70;;;4.25;;
12048;SDS011;6085;49.452;8.502;2022-11-25T16:55:32;7.53;;;3.95;;
12048;SDS011;6085;49.452;8.502;2022-11-25T16:59:38;8.23;;;4.60;;
12048;SDS011;6085;49.452;8.502;2022-11-25T17:03:42;9.45;;;4.40;;
12048;SDS011;6085;49.452;8.502;2022-11-25T17:07:44;11.30;;;5.13;;
12048;SDS011;6085;49.452;8.502;2022-11-25T17:11:48;9.75;;;4.65;;
12048;SDS011;6085;49.452;8.502;2022-11-25T17:15:55;7.97;;;4.82;;
12048;SDS011;6085;49.452;8.502;2022-11-25T17:19:57;10.43;;;4.38;;
12048;SDS011;6085;49.452;8.502;2022-11-25T17:23:59;9.80;;;4.75;;
12048;SDS011;6085;49.452;8.502;2022-11-25T17:28:07;10.05;;;5.30;;
12048;SDS011;6085;49.452;8.502;2022-11-25T17:32:16;8.23;;;4.68;;
12048;SDS011;6085;49.452;8.502;2022-11-25T17:36:18;8.55;;;4.88;;
12048;SDS011;6085;49.452;8.502;2022-11-25T17:40:20;9.40;;;4.70;;
12048;SDS011;6085;49.452;8.502;2022-11-25T17:44:23;12.73;;;5.40;;
12048;SDS011;6085;49.452;8.502;2022-11-25T17:48:27;11.40;;;5.47;;
12048;SDS011;6085;49.452;8.502;2022-11-25T17:52:30;10.23;;;5.07;;
12048;SDS011;6085;49.452;8.502;2022-11-25T17:56:32;9.77;;;4.57;;
12048;SDS011;6085;49.452;8.502;2022-11-25T18:00:33;8.82;;;4.80;;
12048;SDS011;6085;49.452;8.502;2022-11-25T18:04:37;5.85;;;4.78;;
12048;SDS011;6085;49.452;8.502;2022-11-25T18:08:39;11.32;;;6.60;;
12048;SDS011;6085;49.452;8.502;2022-11-25T18:12:41;8.93;;;4.15;;
12048;SDS011;6085;49.452;8.502;2022-11-25T18:16:45;9.48;;;4.57;;
12048;SDS011;6085;49.452;8.502;2022-11-25T18:20:48;7.82;;;4.63;;
12048;SDS011;6085;49.452;8.502;2022-11-25T18:24:51;10.77;;;4.75;;
12048;SDS011;6085;49.452;8.502;2022-11-25T18:28:53;9.93;;;4.95;;
12048;SDS011;6085;49.452;8.502;2022-11-25T18:32:55;9.88;;;4.50;;
12048;SDS011;6085;49.452;8.502;2022-11-25T18:36:58;5.43;;;3.60;;
12048;SDS011;6085;49.452;8.502;2022-11-25T18:41:02;7.00;;;5.07;;
12048;SDS011;6085;49.452;8.502;2022-11-25T18:45:04;9.00;;;4.72;;
12048;SDS011;6085;49.452;8.502;2022-11-25T18:49:09;9.85;;;6.70;;
12048;SDS011;6085;49.452;8.502;2022-11-25T18:53:14;10.95;;;6.50;;
12048;SDS011;6085;49.452;8.502;2022-11-25T18:57:16;10.48;;;7.22;;
12048;SDS011;6085;49.452;8.502;2022-11-25T19:01:18;11.30;;;7.35;;
12048;SDS011;6085;49.452;8.502;2022-11-25T19:05:23;12.13;;;7.68;;
12048;SDS011;6085;49.452;8.502;2022-11-25T19:09:27;10.50;;;7.70;;
12048;SDS011;6085;49.452;8.502;2022-11-25T19:13:30;11.10;;;7.60;;
12048;SDS011;6085;49.452;8.502;2022-11-25T19:17:34;11.60;;;8.13;;
12048;SDS011;6085;49.452;8.502;2022-11-25T19:21:36;14.05;;;7.95;;
12048;SDS011;6085;49.452;8.502;2022-11-25T19:25:40;12.55;;;8.90;;
12048;SDS011;6085;49.452;8.502;2022-11-25T19:29:42;12.85;;;8.30;;
12048;SDS011;6085;49.452;8.502;2022-11-25T19:33:45;12.63;;;8.48;;
12048;SDS011;6085;49.452;8.502;2022-11-25T19:37:49;12.98;;;8.35;;
12048;SDS011;6085;49.452;8.502;2022-11-25T19:41:52;12.52;;;8.80;;
12048;SDS011;6085;49.452;8.502;2022-11-25T19:45:54;11.55;;;8.23;;
12048;SDS011;6085;49.452;8.502;2022-11-25T19:49:58;11.82;;;8.02;;
12048;SDS011;6085;49.452;8.502;2022-11-25T19:54:01;12.93;;;7.13;;
12048;SDS011;6085;49.452;8.502;2022-11-25T19:58:06;15.85;;;7.75;;
12048;SDS011;6085;49.452;8.502;2022-11-25T20:02:10;11.85;;;7.57;;
12048;SDS011;6085;49.452;8.502;2022-11-25T20:06:15;10.50;;;7.00;;
12048;SDS011;6085;49.452;8.502;2022-11-25T20:10:22;12.23;;;7.30;;
12048;SDS011;6085;49.452;8.502;2022-11-25T20:14:27;11.57;;;7.93;;
12048;SDS011;6085;49.452;8.502;2022-11-25T20:18:33;11.48;;;6.68;;
12048;SDS011;6085;49.452;8.502;2022-11-25T20:22:36;13.43;;;8.25;;
12048;SDS011;6085;49.452;8.502;2022-11-25T20:26:40;13.20;;;9.07;;
12048;SDS011;6085;49.452;8.502;2022-11-25T20:30:46;14.48;;;8.75;;
12048;SDS011;6085;49.452;8.502;2022-11-25T20:34:49;15.45;;;9.68;;
12048;SDS011;6085;49.452;8.502;2022-11-25T20:38:51;12.88;;;8.75;;
12048;SDS011;6085;49.452;8.502;2022-11-25T20:42:57;12.63;;;8.43;;
12048;SDS011;6085;49.452;8.502;2022-11-25T20:47:01;10.07;;;8.02;;
12048;SDS011;6085;49.452;8.502;2022-11-25T20:51:05;12.20;;;8.60;;
12048;SDS011;6085;49.452;8.502;2022-11-25T20:55:15;13.23;;;9.18;;
12048;SDS011;6085;49.452;8.502;2022-11-25T20:59:19;16.48;;;9.68;;
12048;SDS011;6085;49.452;8.502;2022-11-25T21:03:25;13.85;;;9.25;;
12048;SDS011;6085;49.452;8.502;2022-11-25T21:07:27;14.20;;;9.10;;
12048;SDS011;6085;49.452;8.502;2022-11-25T21:11:29;14.32;;;9.70;;
12048;SDS011;6085;49.452;8.502;2022-11-25T21:15:32;13.82;;;9.43;;
12048;SDS011;6085;49.452;8.502;2022-11-25T21:19:35;12.00;;;9.25;;
12048;SDS011;6085;49.452;8.502;2022-11-25T21:23:37;15.32;;;9.57;;
12048;SDS011;6085;49.452;8.502;2022-11-25T21:27:39;17.83;;;9.82;;
12048;SDS011;6085;49.452;8.502;2022-11-25T21:31:41;14.73;;;8.88;;
12048;SDS011;6085;49.452;8.502;2022-11-25T21:35:45;16.92;;;8.82;;
12048;SDS011;6085;49.452;8.502;2022-11-25T21:39:51;13.02;;;8.20;;
12048;SDS011;6085;49.452;8.502;2022-11-25T21:43:53;16.67;;;8.18;;
12048;SDS011;6085;49.452;8.502;2022-11-25T21:47:56;10.10;;;7.47;;
12048;SDS011;6085;49.452;8.502;2022-11-25T21:52:00;11.23;;;7.65;;
12048;SDS011;6085;49.452;8.502;2022-11-25T21:56:02;12.93;;;8.77;;
12048;SDS011;6085;49.452;8.502;2022-11-25T22:00:05;11.63;;;8.95;;
12048;SDS011;6085;49.452;8.502;2022-11-25T22:04:18;16.63;;;9.45;;
12048;SDS011;6085;49.452;8.502;2022-11-25T22:08:22;15.15;;;9.80;;
12048;SDS011;6085;49.452;8.502;2022-11-25T22:12:25;15.15;;;9.27;;
12048;SDS011;6085;49.452;8.502;2022-11-25T22:16:30;13.68;;;9.85;;
12048;SDS011;6085;49.452;8.502;2022-11-25T22:20:35;15.35;;;10.57;;
12048;SDS011;6085;49.452;8.502;2022-11-25T22:24:38;14.35;;;10.23;;
12048;SDS011;6085;49.452;8.502;2022-11-25T22:28:40;18.67;;;11.68;;
12048;SDS011;6085;49.452;8.502;2022-11-25T22:32:42;16.52;;;11.75;;
12048;SDS011;6085;49.452;8.502;2022-11-25T22:36:44;15.93;;;11.13;;
12048;SDS011;6085;49.452;8.502;2022-11-25T22:40:48;15.70;;;9.35;;
12048;SDS011;6085;49.452;8.502;2022-11-25T22:44:55;14.02;;;8.60;;
12048;SDS011;6085;49.452;8.502;2022-11-25T22:48:58;15.48;;;8.98;;
12048;SDS011;6085;49.452;8.502;2022-11-25T22:53:00;10.15;;;7.13;;
12048;SDS011;6085;49.452;8.502;2022-11-25T22:57:04;11.65;;;7.32;;
12048;SDS011;6085;49.452;8.502;2022-11-25T23:01:07;14.18;;;7.60;;
12048;SDS011;6085;49.452;8.502;2022-11-25T23:05:13;13.75;;;7.55;;
12048;SDS011;6085;49.452;8.502;2022-11-25T23:09:17;11.50;;;7.13;;
12048;SDS011;6085;49.452;8.502;2022-11-25T23:13:21;12.15;;;7.95;;
12048;SDS011;6085;49.452;8.502;2022-11-25T23:17:23;9.75;;;7.07;;
12048;SDS011;6085;49.452;8.502;2022-11-25T23:21:25;9.23;;;7.25;;
12048;SDS011;6085;49.452;8.502;2022-11-25T23:25:28;10.90;;;6.90;;
12048;SDS011;6085;49.452;8.502;2022-11-25T23:29:31;12.68;;;7.25;;
12048;SDS011;6085;49.452;8.502;2022-11-25T23:33:34;9.90;;;6.60;;
12048;SDS011;6085;49.452;8.502;2022-11-25T23:37:38;12.57;;;7.40;;
12048;SDS011;6085;49.452;8.502;2022-11-25T23:41:39;10.02;;;7.25;;
12048;SDS011;6085;49.452;8.502;2022-11-25T23:45:44;9.40;;;6.65;;
12048;SDS011;6085;49.452;8.502;2022-11-25T23:49:48;12.93;;;7.90;;
12048;SDS011;6085;49.452;8.502;2022-11-25T23:53:51;12.98;;;7.60;;
12048;SDS011;6085;49.452;8.502;2022-11-25T23:57:54;12.50;;;7.53;;
